createdAt,value
2023-03-07T00:01:56.166Z,19.52
2023-03-07T00:04:29.149Z,19.51
2023-03-07T00:07:02.432Z,19.51
2023-03-07T00:09:35.239Z,19.50
2023-03-07T00:12:08.452Z,19.50
2023-03-07T00:14:41.432Z,19.50
2023-03-07T00:17:14.437Z,19.49
2023-03-07T00:19:47.427Z,19.49
2023-03-07T00:22:20.421Z,19.48
2023-03-07T00:24:53.290Z,19.48
2023-03-07T00:27:26.696Z,19.48
2023-03-07T00:30:00.301Z,19.48
2023-03-07T00:32:33.623Z,19.47
2023-03-07T00:35:06.554Z,19.47
2023-03-07T00:37:39.437Z,19.47
2023-03-07T00:40:12.530Z,19.47
2023-03-07T00:42:45.218Z,19.46
2023-03-07T00:45:18.487Z,19.46
2023-03-07T00:47:51.476Z,19.46
2023-03-07T00:50:24.588Z,19.45
2023-03-07T00:52:57.514Z,19.45
2023-03-07T00:55:30.504Z,19.45
2023-03-07T00:58:03.322Z,19.44
2023-03-07T01:00:36.580Z,19.44
2023-03-07T01:03:09.312Z,19.44
2023-03-07T01:05:42.352Z,19.43
2023-03-07T01:08:15.616Z,19.43
2023-03-07T01:10:48.480Z,19.43
2023-03-07T01:13:21.483Z,19.42
2023-03-07T01:15:54.601Z,19.42
2023-03-07T01:18:27.499Z,19.42
2023-03-07T01:21:00.636Z,19.42
2023-03-07T01:23:33.624Z,19.42
2023-03-07T01:26:06.301Z,19.41
2023-03-07T01:28:39.698Z,19.41
2023-03-07T01:31:13.619Z,19.41
2023-03-07T01:33:46.331Z,19.41
2023-03-07T01:36:19.399Z,19.41
2023-03-07T01:38:52.527Z,19.41
2023-03-07T01:41:25.767Z,19.40
2023-03-07T01:44:03.583Z,19.40
2023-03-07T01:46:36.423Z,19.40
2023-03-07T01:49:09.508Z,19.40
2023-03-07T01:51:42.747Z,19.39
2023-03-07T01:54:16.570Z,19.39
2023-03-07T01:56:49.555Z,19.38
2023-03-07T01:59:22.504Z,19.38
2023-03-07T02:01:55.312Z,19.38
2023-03-07T02:04:28.719Z,19.37
2023-03-07T02:07:01.566Z,19.37
2023-03-07T02:09:34.448Z,19.37
2023-03-07T02:12:07.925Z,19.36
2023-03-07T02:14:41.626Z,19.36
2023-03-07T02:17:14.856Z,19.36
2023-03-07T02:19:51.849Z,19.36
2023-03-07T02:22:30.185Z,19.35
2023-03-07T02:25:03.882Z,19.35
2023-03-07T02:27:37.401Z,19.35
2023-03-07T02:30:10.667Z,19.35
2023-03-07T02:32:43.822Z,19.35
2023-03-07T02:35:17.867Z,19.35
2023-03-07T02:37:51.696Z,19.34
2023-03-07T02:40:24.671Z,19.34
2023-03-07T02:42:57.374Z,19.34
2023-03-07T02:45:30.573Z,19.34
2023-03-07T02:48:03.822Z,19.34
2023-03-07T02:50:36.722Z,19.34
2023-03-07T02:53:09.776Z,19.34
2023-03-07T02:55:42.788Z,19.33
2023-03-07T02:58:15.379Z,19.33
2023-03-07T03:00:48.502Z,19.33
2023-03-07T03:03:21.740Z,19.33
2023-03-07T03:05:54.692Z,19.32
2023-03-07T03:08:27.882Z,19.32
2023-03-07T03:11:01.752Z,19.32
2023-03-07T03:13:34.872Z,19.32
2023-03-07T03:16:08.606Z,19.32
2023-03-07T03:18:41.834Z,19.32
2023-03-07T03:21:15.017Z,19.31
2023-03-07T03:23:48.720Z,19.31
2023-03-07T03:26:21.449Z,19.30
2023-03-07T03:28:54.426Z,19.30
2023-03-07T03:31:27.854Z,19.30
2023-03-07T03:34:00.480Z,19.30
2023-03-07T03:36:33.564Z,19.30
2023-03-07T03:39:06.750Z,19.29
2023-03-07T03:41:39.788Z,19.29
2023-03-07T03:44:12.790Z,19.29
2023-03-07T03:46:46.130Z,19.29
2023-03-07T03:49:19.821Z,19.28
2023-03-07T03:51:52.731Z,19.28
2023-03-07T03:54:26.005Z,19.28
2023-03-07T03:56:59.625Z,19.27
2023-03-07T03:59:32.903Z,19.27
2023-03-07T04:02:05.684Z,19.27
2023-03-07T04:04:39.000Z,19.27
2023-03-07T04:07:12.859Z,19.26
2023-03-07T04:09:45.615Z,19.26
2023-03-07T04:12:18.785Z,19.26
2023-03-07T04:14:51.802Z,19.26
2023-03-07T04:17:25.016Z,19.26
2023-03-07T04:19:58.855Z,19.26
2023-03-07T04:22:31.749Z,19.26
2023-03-07T04:25:04.843Z,19.26
2023-03-07T04:27:37.825Z,19.26
2023-03-07T04:30:10.663Z,19.26
2023-03-07T04:32:44.012Z,19.26
2023-03-07T04:35:16.883Z,19.26
2023-03-07T04:37:50.033Z,19.26
2023-03-07T04:40:23.743Z,19.26
2023-03-07T04:42:56.863Z,19.25
2023-03-07T04:45:29.617Z,19.25
2023-03-07T04:48:02.572Z,19.25
2023-03-07T04:50:35.986Z,19.25
2023-03-07T04:53:08.632Z,19.24
2023-03-07T04:55:41.554Z,19.24
2023-03-07T04:58:14.664Z,19.24
2023-03-07T05:00:47.871Z,19.24
2023-03-07T05:03:21.096Z,19.24
2023-03-07T05:05:54.665Z,19.23
2023-03-07T05:08:27.954Z,19.23
2023-03-07T05:11:00.614Z,19.23
2023-03-07T05:13:34.039Z,19.24
2023-03-07T05:16:08.040Z,19.24
2023-03-07T05:18:40.739Z,19.25
2023-03-07T05:21:13.770Z,19.25
2023-03-07T05:23:46.704Z,19.25
2023-03-07T05:26:36.912Z,19.25
2023-03-07T05:29:09.976Z,19.25
2023-03-07T05:31:42.790Z,19.25
2023-03-07T05:34:15.921Z,19.25
2023-03-07T05:36:48.951Z,19.24
2023-03-07T05:39:21.863Z,19.24
2023-03-07T05:41:54.776Z,19.24
2023-03-07T05:44:27.987Z,19.23
2023-03-07T05:47:00.937Z,19.23
2023-03-07T05:49:33.728Z,19.22
2023-03-07T05:52:06.706Z,19.22
2023-03-07T05:54:39.914Z,19.21
2023-03-07T05:57:12.808Z,19.20
2023-03-07T05:59:45.742Z,19.19
2023-03-07T06:02:19.264Z,19.19
2023-03-07T06:04:52.714Z,19.18
2023-03-07T06:07:25.813Z,19.17
2023-03-07T06:09:58.679Z,19.17
2023-03-07T06:12:31.788Z,19.16
2023-03-07T06:15:04.654Z,19.15
2023-03-07T06:17:38.725Z,19.15
2023-03-07T06:20:10.872Z,19.15
2023-03-07T06:22:43.775Z,19.14
2023-03-07T06:25:30.798Z,19.14
2023-03-07T06:28:04.020Z,19.14
2023-03-07T06:30:36.817Z,19.14
2023-03-07T06:33:09.976Z,19.14
2023-03-07T06:35:42.836Z,19.13
2023-03-07T06:38:16.067Z,19.13
2023-03-07T06:40:48.863Z,19.13
2023-03-07T06:43:22.082Z,19.13
2023-03-07T06:45:55.753Z,19.13
2023-03-07T06:48:29.083Z,19.13
2023-03-07T06:51:01.744Z,19.13
2023-03-07T06:53:34.770Z,19.12
2023-03-07T06:56:07.964Z,19.12
2023-03-07T06:58:40.863Z,19.12
2023-03-07T07:01:13.826Z,19.12
2023-03-07T07:03:50.567Z,19.12
2023-03-07T07:06:23.820Z,19.12
2023-03-07T07:08:57.145Z,19.12
2023-03-07T07:11:29.761Z,19.12
2023-03-07T07:14:03.048Z,19.11
2023-03-07T07:16:35.911Z,19.11
2023-03-07T07:19:08.995Z,19.11
2023-03-07T07:21:42.126Z,19.11
2023-03-07T07:24:14.940Z,19.11
2023-03-07T07:26:47.943Z,19.10
2023-03-07T07:29:20.819Z,19.10
2023-03-07T07:31:54.135Z,19.10
2023-03-07T07:34:26.921Z,19.10
2023-03-07T07:36:59.953Z,19.10
2023-03-07T07:39:33.191Z,19.09
2023-03-07T07:42:06.081Z,19.09
2023-03-07T07:44:38.861Z,19.09
2023-03-07T07:47:11.915Z,19.09
2023-03-07T07:49:44.939Z,19.09
2023-03-07T07:52:17.856Z,19.09
2023-03-07T07:54:51.076Z,19.08
2023-03-07T07:57:23.868Z,19.08
2023-03-07T07:59:57.030Z,19.08
2023-03-07T08:02:30.012Z,19.07
2023-03-07T08:05:02.868Z,19.07
2023-03-07T08:07:35.886Z,19.07
2023-03-07T08:10:09.189Z,19.06
2023-03-07T08:12:42.038Z,19.06
2023-03-07T08:15:14.974Z,19.06
2023-03-07T08:17:48.186Z,19.05
2023-03-07T08:20:21.176Z,19.05
2023-03-07T08:22:54.287Z,19.05
2023-03-07T08:25:27.024Z,19.04
2023-03-07T08:27:59.903Z,19.04
2023-03-07T08:30:33.079Z,19.04
2023-03-07T08:33:05.932Z,19.03
2023-03-07T08:35:39.223Z,19.03
2023-03-07T08:38:12.161Z,19.03
2023-03-07T08:40:44.960Z,19.03
2023-03-07T08:43:18.227Z,19.02
2023-03-07T08:45:51.037Z,19.02
2023-03-07T08:48:24.173Z,19.02
2023-03-07T08:50:57.086Z,19.02
2023-03-07T08:53:29.957Z,19.01
2023-03-07T08:56:03.254Z,19.01
2023-03-07T08:58:36.235Z,19.01
2023-03-07T09:01:09.048Z,19.01
2023-03-07T09:03:42.156Z,19.01
2023-03-07T09:06:14.971Z,19.01
2023-03-07T09:08:47.973Z,19.01
2023-03-07T09:11:21.172Z,19.01
2023-03-07T09:13:54.472Z,19.01
2023-03-07T09:16:30.353Z,19.00
2023-03-07T09:19:02.992Z,19.00
2023-03-07T09:21:36.070Z,19.00
2023-03-07T09:24:09.278Z,19.00
2023-03-07T09:26:42.121Z,19.00
2023-03-07T09:29:15.005Z,19.00
2023-03-07T09:31:48.254Z,19.00
2023-03-07T09:34:21.274Z,19.00
2023-03-07T09:36:54.116Z,19.00
2023-03-07T09:39:27.358Z,18.99
2023-03-07T09:42:00.467Z,18.99
2023-03-07T09:44:34.151Z,18.99
2023-03-07T09:47:07.404Z,18.99
2023-03-07T09:49:40.395Z,18.99
2023-03-07T09:52:13.284Z,18.99
2023-03-07T09:54:46.126Z,18.99
2023-03-07T09:57:19.391Z,18.99
2023-03-07T09:59:53.803Z,18.99
2023-03-07T10:02:25.355Z,18.99
2023-03-07T10:04:58.442Z,18.99
2023-03-07T10:07:31.249Z,18.99
2023-03-07T10:10:04.337Z,18.98
2023-03-07T10:12:37.306Z,18.98
2023-03-07T10:15:10.071Z,18.99
2023-03-07T10:17:43.204Z,18.94
2023-03-07T10:20:16.333Z,18.81
2023-03-07T10:22:49.200Z,18.66
2023-03-07T10:25:22.216Z,18.48
2023-03-07T10:27:55.454Z,18.29
2023-03-07T10:30:28.386Z,18.09
2023-03-07T10:33:01.643Z,17.90
2023-03-07T10:35:34.421Z,17.72
2023-03-07T10:38:07.578Z,17.61
2023-03-07T10:40:41.384Z,17.57
2023-03-07T10:43:14.345Z,17.57
2023-03-07T10:45:47.221Z,17.60
2023-03-07T10:48:20.118Z,17.66
2023-03-07T10:50:53.238Z,17.72
2023-03-07T10:53:26.370Z,17.79
2023-03-07T10:55:59.462Z,17.86
2023-03-07T10:58:32.458Z,17.93
2023-03-07T11:01:05.234Z,18.00
2023-03-07T11:03:51.569Z,18.06
2023-03-07T11:06:11.473Z,18.12
2023-03-07T11:08:44.432Z,18.18
2023-03-07T11:11:17.129Z,18.23
2023-03-07T11:13:50.598Z,18.28
2023-03-07T11:16:23.340Z,18.33
2023-03-07T11:18:56.281Z,18.37
2023-03-07T11:21:29.442Z,18.42
2023-03-07T11:24:02.625Z,18.46
2023-03-07T11:26:35.514Z,18.50
2023-03-07T11:29:08.222Z,18.53
2023-03-07T11:31:41.568Z,18.57
2023-03-07T11:34:14.478Z,18.59
2023-03-07T11:36:47.544Z,18.62
2023-03-07T11:39:20.346Z,18.65
2023-03-07T11:41:53.308Z,18.67
2023-03-07T11:44:26.264Z,18.70
2023-03-07T11:46:59.290Z,18.72
2023-03-07T11:49:32.201Z,18.74
2023-03-07T11:52:05.552Z,18.75
2023-03-07T11:54:38.338Z,18.77
2023-03-07T11:57:11.511Z,18.78
2023-03-07T11:59:44.393Z,18.79
2023-03-07T12:02:23.121Z,18.80
2023-03-07T12:04:56.420Z,18.81
2023-03-07T12:07:31.005Z,18.82
2023-03-07T12:10:02.347Z,18.83
2023-03-07T12:12:35.873Z,18.83
2023-03-07T12:15:10.001Z,18.84
2023-03-07T12:17:43.292Z,18.84
2023-03-07T12:20:16.520Z,18.85
2023-03-07T12:22:49.231Z,18.85
2023-03-07T12:25:22.257Z,18.85
2023-03-07T12:27:55.442Z,18.85
2023-03-07T12:30:28.586Z,18.86
2023-03-07T12:33:01.548Z,18.86
2023-03-07T12:35:34.380Z,18.86
2023-03-07T12:38:07.382Z,18.86
2023-03-07T12:40:40.392Z,18.86
2023-03-07T12:43:13.592Z,18.86
2023-03-07T12:45:46.617Z,18.85
2023-03-07T12:48:19.297Z,18.86
2023-03-07T12:50:52.411Z,18.85
2023-03-07T12:53:25.338Z,18.85
2023-03-07T12:55:58.419Z,18.85
2023-03-07T12:58:31.726Z,18.85
2023-03-07T13:01:04.600Z,18.85
2023-03-07T13:03:37.758Z,18.85
2023-03-07T13:06:11.413Z,18.85
2023-03-07T13:08:44.343Z,18.85
2023-03-07T13:11:17.337Z,18.85
2023-03-07T13:13:50.331Z,18.85
2023-03-07T13:16:23.523Z,18.85
2023-03-07T13:18:56.482Z,18.86
2023-03-07T13:21:29.728Z,18.86
2023-03-07T13:24:02.751Z,18.86
2023-03-07T13:26:35.656Z,18.86
2023-03-07T13:29:10.707Z,18.86
2023-03-07T13:31:43.600Z,18.86
2023-03-07T13:34:16.661Z,18.86
2023-03-07T13:36:49.503Z,18.86
2023-03-07T13:39:22.536Z,18.86
2023-03-07T13:41:58.464Z,18.86
2023-03-07T13:44:31.446Z,18.86
2023-03-07T13:47:04.591Z,18.87
2023-03-07T13:49:37.666Z,18.88
2023-03-07T13:52:10.387Z,18.90
2023-03-07T13:54:43.774Z,18.92
2023-03-07T13:57:16.384Z,18.93
2023-03-07T13:59:49.544Z,18.96
2023-03-07T14:02:22.455Z,18.99
2023-03-07T14:04:55.587Z,19.02
2023-03-07T14:07:28.709Z,19.05
2023-03-07T14:10:09.868Z,19.08
2023-03-07T14:12:34.509Z,19.10
2023-03-07T14:15:07.539Z,19.13
2023-03-07T14:17:40.796Z,19.16
2023-03-07T14:20:13.585Z,19.18
2023-03-07T14:22:46.540Z,19.20
2023-03-07T14:25:19.464Z,19.23
2023-03-07T14:27:52.813Z,19.25
2023-03-07T14:30:25.510Z,19.27
2023-03-07T14:32:58.719Z,19.28
2023-03-07T14:35:31.490Z,19.30
2023-03-07T14:38:04.624Z,19.32
2023-03-07T14:40:37.650Z,19.33
2023-03-07T14:43:10.801Z,19.35
2023-03-07T14:45:43.678Z,19.36
2023-03-07T14:48:16.570Z,19.37
2023-03-07T14:50:49.879Z,19.38
2023-03-07T14:53:22.667Z,19.40
2023-03-07T14:55:55.801Z,19.41
2023-03-07T14:58:28.712Z,19.42
2023-03-07T15:01:01.631Z,19.43
2023-03-07T15:03:34.542Z,19.43
2023-03-07T15:06:07.514Z,19.44
2023-03-07T15:08:54.567Z,19.45
2023-03-07T15:11:27.662Z,19.45
2023-03-07T15:14:00.669Z,19.46
2023-03-07T15:16:33.657Z,19.47
2023-03-07T15:19:06.741Z,19.47
2023-03-07T15:21:39.600Z,19.48
2023-03-07T15:24:12.529Z,19.48
2023-03-07T15:26:45.717Z,19.49
2023-03-07T15:29:18.538Z,19.50
2023-03-07T15:31:51.889Z,19.50
2023-03-07T15:34:24.851Z,19.51
2023-03-07T15:36:57.666Z,19.52
2023-03-07T15:39:30.584Z,19.53
2023-03-07T15:42:04.062Z,19.54
2023-03-07T15:44:38.038Z,19.55
2023-03-07T15:47:11.729Z,19.56
2023-03-07T15:49:44.719Z,19.57
2023-03-07T15:52:17.595Z,19.57
2023-03-07T15:54:50.992Z,19.58
2023-03-07T15:57:24.591Z,19.58
2023-03-07T15:59:57.667Z,19.58
2023-03-07T16:02:31.033Z,19.58
2023-03-07T16:05:03.764Z,19.58
2023-03-07T16:07:36.605Z,19.58
2023-03-07T16:10:09.733Z,19.57
2023-03-07T16:12:48.675Z,19.57
2023-03-07T16:15:21.622Z,19.56
2023-03-07T16:17:54.758Z,19.56
2023-03-07T16:20:27.651Z,19.56
2023-03-07T16:23:00.812Z,19.56
2023-03-07T16:25:33.632Z,19.56
2023-03-07T16:28:07.083Z,19.57
2023-03-07T16:30:40.981Z,19.57
2023-03-07T16:33:13.780Z,19.58
2023-03-07T16:35:46.979Z,19.58
2023-03-07T16:38:19.634Z,19.59
2023-03-07T16:40:52.767Z,19.60
2023-03-07T16:43:25.751Z,19.61
2023-03-07T16:45:58.714Z,19.62
2023-03-07T16:48:31.671Z,19.63
2023-03-07T16:51:04.930Z,19.64
2023-03-07T16:53:37.728Z,19.65
2023-03-07T16:56:10.719Z,19.66
2023-03-07T16:58:44.487Z,19.67
2023-03-07T17:01:16.832Z,19.68
2023-03-07T17:03:49.778Z,19.63
2023-03-07T17:06:33.570Z,19.58
2023-03-07T17:08:56.025Z,19.55
2023-03-07T17:11:28.831Z,19.53
2023-03-07T17:14:02.254Z,19.51
2023-03-07T17:16:35.682Z,19.51
2023-03-07T17:19:08.789Z,19.51
2023-03-07T17:21:42.156Z,19.51
2023-03-07T17:24:14.854Z,19.51
2023-03-07T17:26:47.883Z,19.51
2023-03-07T17:29:20.718Z,19.52
2023-03-07T17:31:53.849Z,19.53
2023-03-07T17:34:27.115Z,19.54
2023-03-07T17:37:00.058Z,19.54
2023-03-07T17:39:32.742Z,19.55
2023-03-07T17:42:05.954Z,19.56
2023-03-07T17:44:38.740Z,19.57
2023-03-07T17:47:11.745Z,19.58
2023-03-07T17:49:46.803Z,19.59
2023-03-07T17:52:17.772Z,19.60
2023-03-07T17:54:50.884Z,19.61
2023-03-07T17:57:23.765Z,19.62
2023-03-07T17:59:56.888Z,19.63
2023-03-07T18:02:30.032Z,19.64
2023-03-07T18:05:06.688Z,19.65
2023-03-07T18:07:39.913Z,19.66
2023-03-07T18:10:12.927Z,19.67
2023-03-07T18:12:45.921Z,19.69
2023-03-07T18:15:18.803Z,19.70
2023-03-07T18:17:51.836Z,19.71
2023-03-07T18:20:25.059Z,19.72
2023-03-07T18:22:57.835Z,19.73
2023-03-07T18:25:30.960Z,19.74
2023-03-07T18:28:03.875Z,19.75
2023-03-07T18:30:36.934Z,19.76
2023-03-07T18:33:09.924Z,19.76
2023-03-07T18:35:43.178Z,19.77
2023-03-07T18:38:15.966Z,19.78
2023-03-07T18:40:49.211Z,19.79
2023-03-07T18:43:21.864Z,19.79
2023-03-07T18:45:54.944Z,19.80
2023-03-07T18:48:30.953Z,19.81
2023-03-07T18:51:03.981Z,19.82
2023-03-07T18:53:37.214Z,19.83
2023-03-07T18:56:09.836Z,19.84
2023-03-07T18:58:42.865Z,19.85
2023-03-07T19:01:16.172Z,19.85
2023-03-07T19:03:49.116Z,19.86
2023-03-07T19:06:21.893Z,19.87
2023-03-07T19:08:55.220Z,19.88
2023-03-07T19:11:28.036Z,19.89
2023-03-07T19:14:00.853Z,19.90
2023-03-07T19:16:34.106Z,19.90
2023-03-07T19:19:07.202Z,19.90
2023-03-07T19:21:39.914Z,19.91
2023-03-07T19:24:13.211Z,19.91
2023-03-07T19:26:45.884Z,19.92
2023-03-07T19:29:19.170Z,19.92
2023-03-07T19:31:51.955Z,19.93
2023-03-07T19:34:25.174Z,19.93
2023-03-07T19:36:58.168Z,19.93
2023-03-07T19:39:36.355Z,19.94
2023-03-07T19:42:09.056Z,19.94
2023-03-07T19:44:41.920Z,19.94
2023-03-07T19:47:14.907Z,19.94
2023-03-07T19:49:47.923Z,19.94
2023-03-07T19:52:20.930Z,19.94
2023-03-07T19:54:54.344Z,19.95
2023-03-07T19:57:27.219Z,19.95
2023-03-07T20:00:00.339Z,19.96
2023-03-07T20:02:33.255Z,19.96
2023-03-07T20:05:06.080Z,19.97
2023-03-07T20:07:39.204Z,19.97
2023-03-07T20:13:02.450Z,19.98
2023-03-07T20:15:42.204Z,19.99
2023-03-07T20:20:50.376Z,19.99
2023-03-07T20:23:22.990Z,19.99
2023-03-07T20:28:31.150Z,19.99
2023-03-07T20:31:04.023Z,19.98
2023-03-07T20:33:37.046Z,19.97
2023-03-07T20:36:10.296Z,19.95
2023-03-07T20:38:42.994Z,19.93
2023-03-07T20:41:15.993Z,19.91
2023-03-07T20:43:49.440Z,19.90
2023-03-07T20:46:22.088Z,19.88
2023-03-07T20:48:55.135Z,19.87
2023-03-07T20:51:28.522Z,19.87
2023-03-07T20:54:02.376Z,19.87
2023-03-07T20:56:35.385Z,19.87
2023-03-07T20:59:08.215Z,19.87
2023-03-07T21:01:41.089Z,19.88
2023-03-07T21:04:14.321Z,19.88
2023-03-07T21:06:47.379Z,19.89
2023-03-07T21:09:20.375Z,19.90
2023-03-07T21:11:53.404Z,19.91
2023-03-07T21:14:26.359Z,19.92
2023-03-07T21:16:59.146Z,19.93
2023-03-07T21:19:32.155Z,19.93
2023-03-07T21:22:05.480Z,19.94
2023-03-07T21:24:38.390Z,19.94
2023-03-07T21:27:11.560Z,19.95
2023-03-07T21:29:45.077Z,19.95
2023-03-07T21:32:18.101Z,19.96
2023-03-07T21:34:51.415Z,19.97
2023-03-07T21:37:24.343Z,19.98
2023-03-07T21:39:57.393Z,19.99
2023-03-07T21:42:30.396Z,20.00
2023-03-07T21:45:03.480Z,20.01
2023-03-07T21:47:36.478Z,20.01
2023-03-07T21:50:09.406Z,20.02
2023-03-07T21:52:42.285Z,20.02
2023-03-07T21:55:15.338Z,20.02
2023-03-07T21:57:48.368Z,20.03
2023-03-07T22:00:35.454Z,20.02
2023-03-07T22:03:08.494Z,20.03
2023-03-07T22:05:41.182Z,20.04
2023-03-07T22:08:14.316Z,20.05
2023-03-07T22:10:47.136Z,20.05
2023-03-07T22:13:20.345Z,20.05
2023-03-07T22:15:53.507Z,20.05
2023-03-07T22:18:26.527Z,20.04
2023-03-07T22:20:59.463Z,20.03
2023-03-07T22:23:35.545Z,20.02
2023-03-07T22:26:08.475Z,20.01
2023-03-07T22:28:41.567Z,19.99
2023-03-07T22:31:14.371Z,19.98
2023-03-07T22:33:47.151Z,19.96
2023-03-07T22:36:20.342Z,19.94
2023-03-07T22:38:53.464Z,19.92
2023-03-07T22:41:26.684Z,19.90
2023-03-07T22:44:00.608Z,19.88
2023-03-07T22:46:33.370Z,19.87
2023-03-07T22:49:06.659Z,19.86
2023-03-07T22:51:40.480Z,19.84
2023-03-07T22:54:13.492Z,19.83
2023-03-07T22:56:46.167Z,19.82
2023-03-07T22:59:19.240Z,19.81
2023-03-07T23:01:52.443Z,19.80
2023-03-07T23:04:25.312Z,19.79
2023-03-07T23:06:58.512Z,19.78
2023-03-07T23:09:31.486Z,19.77
2023-03-07T23:12:04.509Z,19.77
2023-03-07T23:14:37.557Z,19.76
2023-03-07T23:17:10.393Z,19.75
2023-03-07T23:19:43.610Z,19.75
2023-03-07T23:22:16.249Z,19.74
2023-03-07T23:24:49.220Z,19.73
2023-03-07T23:27:22.265Z,19.72
2023-03-07T23:29:55.255Z,19.72
2023-03-07T23:32:28.337Z,19.71
2023-03-07T23:35:01.322Z,19.71
2023-03-07T23:37:34.675Z,19.70
2023-03-07T23:40:08.411Z,19.69
2023-03-07T23:42:41.618Z,19.69
2023-03-07T23:45:14.644Z,19.68
2023-03-07T23:47:47.395Z,19.68
2023-03-07T23:50:20.261Z,19.67
2023-03-07T23:52:53.602Z,19.66
2023-03-07T23:55:26.540Z,19.66
2023-03-07T23:57:59.386Z,19.65
